createdAt,value
2018-09-03T00:00:48.304Z,98399.00
2018-09-03T00:03:19.108Z,98396.00
2018-09-03T00:05:49.210Z,98407.00
2018-09-03T00:08:19.354Z,98407.00
2018-09-03T00:10:49.507Z,98410.00
2018-09-03T00:13:19.747Z,98414.00
2018-09-03T00:15:49.885Z,98412.00
2018-09-03T00:18:20.096Z,98408.00
2018-09-03T00:20:50.206Z,98414.00
2018-09-03T00:23:33.034Z,98420.00
2018-09-03T00:29:20.449Z,98398.00
2018-09-03T00:31:55.744Z,98387.00
2018-09-03T00:34:30.956Z,98380.00
2018-09-03T00:37:06.203Z,98377.00
2018-09-03T00:39:41.632Z,98379.00
2018-09-03T00:42:18.229Z,98378.00
2018-09-03T00:44:53.501Z,98379.00
2018-09-03T00:47:23.767Z,98372.00
2018-09-03T00:50:05.107Z,98373.00
2018-09-03T00:52:35.222Z,98370.00
2018-09-03T00:55:06.462Z,98366.00
2018-09-03T00:57:36.592Z,98360.00
2018-09-03T01:00:07.462Z,98358.00
2018-09-03T01:02:37.802Z,98367.00
2018-09-03T01:05:07.912Z,98368.00
2018-09-03T01:07:38.155Z,98372.00
2018-09-03T01:10:08.370Z,98373.00
2018-09-03T01:12:38.460Z,98373.00
2018-09-03T01:15:08.606Z,98374.00
2018-09-03T01:17:38.800Z,98372.00
2018-09-03T01:20:08.806Z,98363.00
2018-09-03T01:22:38.806Z,98358.00
2018-09-03T01:25:08.872Z,98353.00
2018-09-03T01:27:38.985Z,98349.00
2018-09-03T01:30:09.105Z,98339.00
2018-09-03T01:32:39.794Z,98346.00
2018-09-03T01:35:10.119Z,98349.00
2018-09-03T01:37:40.179Z,98359.00
2018-09-03T01:40:10.343Z,98361.00
2018-09-03T01:42:40.417Z,98356.00
2018-09-03T01:45:10.478Z,98358.00
2018-09-03T01:47:40.578Z,98354.00
2018-09-03T01:50:10.695Z,98346.00
2018-09-03T01:52:40.885Z,98352.00
2018-09-03T01:55:10.973Z,98357.00
2018-09-03T01:57:41.041Z,98356.00
2018-09-03T02:00:11.151Z,98349.00
2018-09-03T02:02:41.260Z,98349.00
2018-09-03T02:05:11.472Z,98347.00
2018-09-03T02:07:41.589Z,98348.00
2018-09-03T02:10:11.696Z,98343.00
2018-09-03T02:12:41.875Z,98342.00
2018-09-03T02:15:12.059Z,98339.00
2018-09-03T02:17:42.090Z,98335.00
2018-09-03T02:20:12.163Z,98338.00
2018-09-03T02:22:42.359Z,98338.00
2018-09-03T02:25:12.597Z,98342.00
2018-09-03T02:27:42.745Z,98336.00
2018-09-03T02:30:13.455Z,98339.00
2018-09-03T02:32:43.576Z,98338.00
2018-09-03T02:35:13.660Z,98339.00
2018-09-03T02:37:43.779Z,98335.00
2018-09-03T02:40:13.923Z,98328.00
2018-09-03T02:42:43.980Z,98323.00
2018-09-03T02:45:14.581Z,98330.00
2018-09-03T02:47:44.684Z,98325.00
2018-09-03T02:50:14.744Z,98322.00
2018-09-03T02:52:44.864Z,98318.00
2018-09-03T02:55:15.313Z,98319.00
2018-09-03T02:57:45.530Z,98315.00
2018-09-03T03:00:15.710Z,98310.00
2018-09-03T03:02:45.767Z,98302.00
2018-09-03T03:05:16.026Z,98293.00
2018-09-03T03:07:46.065Z,98286.00
2018-09-03T03:10:16.179Z,98282.00
2018-09-03T03:12:46.190Z,98273.00
2018-09-03T03:15:16.292Z,98263.00
2018-09-03T03:17:46.341Z,98258.00
2018-09-03T03:20:16.506Z,98251.00
2018-09-03T03:22:46.728Z,98258.00
2018-09-03T03:25:17.018Z,98265.00
2018-09-03T03:27:47.184Z,98263.00
2018-09-03T03:30:17.342Z,98268.00
2018-09-03T03:32:48.384Z,98273.00
2018-09-03T03:35:18.556Z,98273.00
2018-09-03T03:37:49.659Z,98268.00
2018-09-03T03:40:20.169Z,98260.00
2018-09-03T03:42:50.436Z,98262.00
2018-09-03T03:45:20.558Z,98264.00
2018-09-03T03:47:50.720Z,98264.00
2018-09-03T03:50:20.851Z,98268.00
2018-09-03T03:52:51.005Z,98264.00
2018-09-03T03:55:21.159Z,98260.00
2018-09-03T03:57:51.296Z,98254.00
2018-09-03T04:00:21.460Z,98259.00
2018-09-03T04:02:51.648Z,98257.00
2018-09-03T04:05:21.976Z,98255.00
2018-09-03T04:07:52.141Z,98247.00
2018-09-03T04:10:22.363Z,98246.00
2018-09-03T04:12:54.854Z,98241.00
2018-09-03T04:15:24.946Z,98242.00
2018-09-03T04:17:55.556Z,98240.00
2018-09-03T04:20:25.624Z,98233.00
2018-09-03T04:22:55.871Z,98234.00
2018-09-03T04:25:25.976Z,98235.00
2018-09-03T04:27:56.820Z,98235.00
2018-09-03T04:30:27.202Z,98238.00
2018-09-03T04:32:57.312Z,98239.00
2018-09-03T04:35:27.498Z,98239.00
2018-09-03T04:37:57.618Z,98241.00
2018-09-03T04:40:27.812Z,98238.00
2018-09-03T04:42:58.026Z,98237.00
2018-09-03T04:45:28.086Z,98234.00
2018-09-03T04:47:58.330Z,98234.00
2018-09-03T04:50:28.378Z,98236.00
2018-09-03T04:52:58.542Z,98240.00
2018-09-03T04:55:28.660Z,98241.00
2018-09-03T04:57:59.452Z,98237.00
2018-09-03T05:00:29.548Z,98238.00
2018-09-03T05:02:59.786Z,98239.00
2018-09-03T05:05:29.920Z,98242.00
2018-09-03T05:08:00.128Z,98254.00
2018-09-03T05:10:30.240Z,98257.00
2018-09-03T05:13:00.286Z,98266.00
2018-09-03T05:15:30.990Z,98267.00
2018-09-03T05:18:01.128Z,98262.00
2018-09-03T05:20:31.327Z,98264.00
2018-09-03T05:23:01.578Z,98265.00
2018-09-03T05:25:31.637Z,98267.00
2018-09-03T05:28:01.842Z,98273.00
2018-09-03T05:30:32.514Z,98273.00
2018-09-03T05:33:02.652Z,98270.00
2018-09-03T05:35:32.814Z,98274.00
2018-09-03T05:38:02.834Z,98275.00
2018-09-03T05:40:32.954Z,98270.00
2018-09-03T05:43:04.032Z,98262.00
2018-09-03T05:45:34.954Z,98264.00
2018-09-03T05:48:05.361Z,98266.00
2018-09-03T05:50:35.496Z,98272.00
2018-09-03T05:53:05.800Z,98267.00
2018-09-03T05:55:35.989Z,98263.00
2018-09-03T05:58:06.150Z,98271.00
2018-09-03T06:00:36.325Z,98273.00
2018-09-03T06:03:06.806Z,98275.00
2018-09-03T06:05:36.997Z,98275.00
2018-09-03T06:08:07.813Z,98262.00
2018-09-03T06:10:38.073Z,98261.00
2018-09-03T06:13:08.125Z,98256.00
2018-09-03T06:15:38.454Z,98262.00
2018-09-03T06:18:08.637Z,98265.00
2018-09-03T06:20:38.749Z,98262.00
2018-09-03T06:23:09.015Z,98264.00
2018-09-03T06:25:39.111Z,98272.00
2018-09-03T06:28:09.336Z,98273.00
2018-09-03T06:30:39.459Z,98273.00
2018-09-03T06:33:10.195Z,98265.00
2018-09-03T06:35:40.398Z,98260.00
2018-09-03T06:38:10.421Z,98251.00
2018-09-03T06:40:40.681Z,98251.00
2018-09-03T06:43:10.749Z,98252.00
2018-09-03T06:45:40.881Z,98251.00
2018-09-03T06:48:11.037Z,98244.00
2018-09-03T06:50:41.125Z,98247.00
2018-09-03T06:53:11.290Z,98235.00
2018-09-03T06:55:41.380Z,98235.00
2018-09-03T06:58:11.578Z,98232.00
2018-09-03T07:00:42.039Z,98226.00
2018-09-03T07:03:12.369Z,98223.00
2018-09-03T07:05:42.470Z,98217.00
2018-09-03T07:08:12.723Z,98217.00
2018-09-03T07:10:42.882Z,98219.00
2018-09-03T07:13:12.928Z,98208.00
2018-09-03T07:15:43.030Z,98212.00
2018-09-03T07:18:13.105Z,98211.00
2018-09-03T07:20:43.217Z,98219.00
2018-09-03T07:23:13.464Z,98214.00
2018-09-03T07:25:43.702Z,98207.00
2018-09-03T07:28:13.882Z,98197.00
2018-09-03T07:30:44.054Z,98191.00
2018-09-03T07:33:14.168Z,98196.00
2018-09-03T07:35:44.411Z,98207.00
2018-09-03T07:38:14.990Z,98213.00
2018-09-03T07:40:45.155Z,98213.00
2018-09-03T07:43:15.418Z,98214.00
2018-09-03T07:45:45.711Z,98211.00
2018-09-03T07:48:15.923Z,98221.00
2018-09-03T07:50:46.080Z,98223.00
2018-09-03T07:53:16.159Z,98223.00
2018-09-03T07:55:46.342Z,98222.00
2018-09-03T07:58:16.420Z,98224.00
2018-09-03T08:00:47.226Z,98225.00
2018-09-03T08:03:17.415Z,98223.00
2018-09-03T08:05:47.622Z,98225.00
2018-09-03T08:08:18.604Z,98220.00
2018-09-03T08:10:48.770Z,98224.00
2018-09-03T08:13:24.140Z,98228.00
2018-09-03T08:15:54.221Z,98221.00
2018-09-03T08:18:24.364Z,98226.00
2018-09-03T08:20:54.469Z,98219.00
2018-09-03T08:23:24.553Z,98218.00
2018-09-03T08:25:54.721Z,98216.00
2018-09-03T08:28:24.918Z,98214.00
2018-09-03T08:30:55.076Z,98216.00
2018-09-03T08:33:25.239Z,98210.00
2018-09-03T08:35:56.335Z,98209.00
2018-09-03T08:38:26.443Z,98210.00
2018-09-03T08:40:56.550Z,98205.00
2018-09-03T08:43:26.682Z,98200.00
2018-09-03T08:45:56.865Z,98199.00
2018-09-03T08:48:26.973Z,98200.00
2018-09-03T08:50:57.057Z,98195.00
2018-09-03T08:53:27.114Z,98196.00
2018-09-03T08:55:57.234Z,98198.00
2018-09-03T08:58:27.422Z,98197.00
2018-09-03T09:00:57.663Z,98197.00
2018-09-03T09:03:33.095Z,98193.00
2018-09-03T09:06:03.228Z,98186.00
2018-09-03T09:08:33.361Z,98187.00
2018-09-03T09:11:03.540Z,98187.00
2018-09-03T09:13:33.630Z,98186.00
2018-09-03T09:16:04.574Z,98180.00
2018-09-03T09:18:34.776Z,98176.00
2018-09-03T09:21:04.934Z,98172.00
2018-09-03T09:23:35.190Z,98175.00
2018-09-03T09:26:05.326Z,98175.00
2018-09-03T09:28:35.466Z,98175.00
2018-09-03T09:31:06.114Z,98167.00
2018-09-03T09:33:36.178Z,98169.00
2018-09-03T09:36:06.535Z,98170.00
2018-09-03T09:38:36.758Z,98170.00
2018-09-03T09:41:07.518Z,98168.00
2018-09-03T09:43:37.677Z,98172.00
2018-09-03T09:46:07.767Z,98177.00
2018-09-03T09:48:37.810Z,98174.00
2018-09-03T09:51:07.877Z,98175.00
2018-09-03T09:53:38.486Z,98169.00
2018-09-03T09:56:08.667Z,98170.00
2018-09-03T09:58:38.881Z,98169.00
2018-09-03T10:01:14.189Z,98163.00
2018-09-03T10:03:44.464Z,98161.00
2018-09-03T10:06:14.523Z,98165.00
2018-09-03T10:08:44.627Z,98167.00
2018-09-03T10:11:14.735Z,98167.00
2018-09-03T10:13:45.007Z,98171.00
2018-09-03T10:16:15.263Z,98171.00
2018-09-03T10:18:45.428Z,98162.00
2018-09-03T10:21:15.570Z,98166.00
2018-09-03T10:23:45.906Z,98163.00
2018-09-03T10:26:16.153Z,98163.00
2018-09-03T10:28:46.675Z,98167.00
2018-09-03T10:31:16.896Z,98166.00
2018-09-03T10:33:46.967Z,98159.00
2018-09-03T10:36:17.084Z,98153.00
2018-09-03T10:38:47.025Z,98159.00
2018-09-03T10:41:17.713Z,98160.00
2018-09-03T10:43:47.920Z,98160.00
2018-09-03T10:46:18.171Z,98163.00
2018-09-03T10:48:48.214Z,98163.00
2018-09-03T10:51:18.319Z,98169.00
2018-09-03T10:53:48.414Z,98169.00
2018-09-03T10:56:18.631Z,98169.00
2018-09-03T10:58:48.917Z,98168.00
2018-09-03T11:01:19.145Z,98156.00
2018-09-03T11:03:49.273Z,98157.00
2018-09-03T11:06:19.409Z,98152.00
2018-09-03T11:08:49.535Z,98155.00
2018-09-03T11:11:20.038Z,98154.00
2018-09-03T11:13:50.133Z,98155.00
2018-09-03T11:16:20.249Z,98153.00
2018-09-03T11:18:50.688Z,98149.00
2018-09-03T11:21:21.394Z,98153.00
2018-09-03T11:23:51.488Z,98159.00
2018-09-03T11:26:21.594Z,98158.00
2018-09-03T11:28:51.976Z,98156.00
2018-09-03T11:31:22.088Z,98159.00
2018-09-03T11:33:52.369Z,98171.00
2018-09-03T11:36:23.176Z,98166.00
2018-09-03T11:38:53.338Z,98163.00
2018-09-03T11:41:23.429Z,98156.00
2018-09-03T11:43:54.622Z,98155.00
2018-09-03T11:46:25.028Z,98153.00
2018-09-03T11:48:55.773Z,98150.00
2018-09-03T11:51:25.858Z,98155.00
2018-09-03T11:53:56.045Z,98153.00
2018-09-03T11:56:26.416Z,98157.00
2018-09-03T11:58:56.511Z,98152.00
2018-09-03T12:01:26.746Z,98152.00
2018-09-03T12:03:56.724Z,98151.00
2018-09-03T12:06:26.776Z,98151.00
2018-09-03T12:08:56.846Z,98144.00
2018-09-03T12:11:27.010Z,98150.00
2018-09-03T12:13:58.166Z,98149.00
2018-09-03T12:16:28.511Z,98149.00
2018-09-03T12:18:59.474Z,98151.00
2018-09-03T12:21:29.639Z,98148.00
2018-09-03T12:23:59.835Z,98151.00
2018-09-03T12:26:30.142Z,98155.00
2018-09-03T12:29:00.974Z,98157.00
2018-09-03T12:31:31.075Z,98149.00
2018-09-03T12:34:02.117Z,98148.00
2018-09-03T12:36:32.342Z,98145.00
2018-09-03T12:39:03.088Z,98142.00
2018-09-03T12:41:33.275Z,98145.00
2018-09-03T12:44:03.468Z,98144.00
2018-09-03T12:46:34.549Z,98141.00
2018-09-03T12:49:05.042Z,98137.00
2018-09-03T12:51:35.218Z,98138.00
2018-09-03T12:54:05.960Z,98139.00
2018-09-03T12:56:36.238Z,98133.00
2018-09-03T12:59:07.281Z,98129.00
2018-09-03T13:01:37.424Z,98128.00
2018-09-03T13:04:07.666Z,98132.00
2018-09-03T13:06:37.735Z,98134.00
2018-09-03T13:09:26.201Z,98139.00
2018-09-03T13:11:56.910Z,98139.00
2018-09-03T13:14:27.767Z,98145.00
2018-09-03T13:16:57.998Z,98149.00
2018-09-03T13:19:28.856Z,98148.00
2018-09-03T13:21:59.058Z,98151.00
2018-09-03T13:24:29.727Z,98146.00
2018-09-03T13:26:59.966Z,98135.00
2018-09-03T13:29:30.028Z,98128.00
2018-09-03T13:32:00.148Z,98120.00
2018-09-03T13:34:30.535Z,98123.00
2018-09-03T13:37:00.797Z,98129.00
2018-09-03T13:39:31.037Z,98131.00
2018-09-03T13:42:01.253Z,98124.00
2018-09-03T13:44:31.280Z,98128.00
2018-09-03T13:47:01.520Z,98122.00
2018-09-03T13:49:31.717Z,98117.00
2018-09-03T13:52:02.713Z,98114.00
2018-09-03T13:54:32.877Z,98110.00
2018-09-03T13:57:03.085Z,98112.00
2018-09-03T13:59:33.217Z,98109.00
2018-09-03T14:02:03.281Z,98105.00
2018-09-03T14:04:33.838Z,98101.00
2018-09-03T14:07:03.967Z,98101.00
2018-09-03T14:09:37.843Z,98096.00
2018-09-03T14:12:08.833Z,98096.00
2018-09-03T14:14:40.319Z,98099.00
2018-09-03T14:17:10.555Z,98100.00
2018-09-03T14:19:40.794Z,98091.00
2018-09-03T14:22:10.973Z,98087.00
2018-09-03T14:24:41.144Z,98081.00
2018-09-03T14:27:11.330Z,98078.00
2018-09-03T14:29:41.505Z,98078.00
2018-09-03T14:32:11.569Z,98078.00
2018-09-03T14:34:41.671Z,98074.00
2018-09-03T14:37:11.768Z,98072.00
2018-09-03T14:39:41.931Z,98076.00
2018-09-03T14:42:12.056Z,98082.00
2018-09-03T14:44:42.294Z,98077.00
2018-09-03T14:47:12.483Z,98071.00
2018-09-03T14:49:43.069Z,98071.00
2018-09-03T14:52:13.889Z,98074.00
2018-09-03T14:54:43.946Z,98069.00
2018-09-03T14:57:14.229Z,98072.00
2018-09-03T14:59:44.466Z,98076.00
2018-09-03T15:02:14.647Z,98076.00
2018-09-03T15:04:44.730Z,98076.00
2018-09-03T15:07:14.797Z,98077.00
2018-09-03T15:09:44.854Z,98076.00
2018-09-03T15:12:15.111Z,98076.00
2018-09-03T15:14:45.799Z,98076.00
2018-09-03T15:17:15.940Z,98075.00
2018-09-03T15:19:46.190Z,98076.00
2018-09-03T15:22:16.380Z,98076.00
2018-09-03T15:24:46.500Z,98074.00
2018-09-03T15:27:16.728Z,98070.00
2018-09-03T15:29:46.891Z,98069.00
2018-09-03T15:32:17.039Z,98068.00
2018-09-03T15:34:47.197Z,98068.00
2018-09-03T15:37:17.593Z,98064.00
2018-09-03T15:39:47.695Z,98059.00
2018-09-03T15:42:17.881Z,98058.00
2018-09-03T15:44:48.190Z,98055.00
2018-09-03T15:47:18.363Z,98056.00
2018-09-03T15:49:48.506Z,98060.00
2018-09-03T15:52:18.756Z,98058.00
2018-09-03T15:54:49.031Z,98062.00
2018-09-03T15:57:19.518Z,98053.00
2018-09-03T15:59:49.590Z,98064.00
2018-09-03T16:02:19.754Z,98063.00
2018-09-03T16:04:49.877Z,98061.00
2018-09-03T16:07:20.061Z,98061.00
2018-09-03T16:09:50.144Z,98063.00
2018-09-03T16:12:20.261Z,98058.00
2018-09-03T16:14:50.458Z,98067.00
2018-09-03T16:17:20.604Z,98057.00
2018-09-03T16:19:50.751Z,98065.00
2018-09-03T16:22:32.342Z,98060.00
2018-09-03T16:25:02.398Z,98060.00
2018-09-03T16:27:32.725Z,98061.00
2018-09-03T16:30:02.855Z,98064.00
2018-09-03T16:32:33.119Z,98060.00
2018-09-03T16:35:03.281Z,98058.00
2018-09-03T16:37:34.177Z,98054.00
2018-09-03T16:40:04.359Z,98056.00
2018-09-03T16:42:34.607Z,98060.00
2018-09-03T16:45:04.755Z,98058.00
2018-09-03T16:47:35.166Z,98061.00
2018-09-03T16:50:08.544Z,98059.00
2018-09-03T16:52:38.608Z,98058.00
2018-09-03T16:55:08.732Z,98063.00
2018-09-03T16:57:38.868Z,98064.00
2018-09-03T17:00:08.942Z,98066.00
2018-09-03T17:02:39.066Z,98069.00
2018-09-03T17:05:09.301Z,98075.00
2018-09-03T17:07:39.580Z,98070.00
2018-09-03T17:10:09.591Z,98075.00
2018-09-03T17:12:39.796Z,98075.00
2018-09-03T17:15:09.874Z,98077.00
2018-09-03T17:17:39.961Z,98076.00
2018-09-03T17:20:10.111Z,98081.00
2018-09-03T17:22:40.118Z,98084.00
2018-09-03T17:25:10.185Z,98085.00
2018-09-03T17:27:40.418Z,98079.00
2018-09-03T17:30:10.549Z,98083.00
2018-09-03T17:32:41.678Z,98085.00
2018-09-03T17:35:11.820Z,98088.00
2018-09-03T17:37:41.881Z,98091.00
2018-09-03T17:40:11.947Z,98096.00
2018-09-03T17:42:42.130Z,98092.00
2018-09-03T17:45:12.317Z,98092.00
2018-09-03T17:47:42.489Z,98097.00
2018-09-03T17:50:12.671Z,98098.00
2018-09-03T17:52:42.893Z,98101.00
2018-09-03T17:55:13.671Z,98103.00
2018-09-03T17:57:43.779Z,98106.00
2018-09-03T18:00:13.905Z,98115.00
2018-09-03T18:02:44.175Z,98119.00
2018-09-03T18:05:14.307Z,98121.00
2018-09-03T18:07:44.533Z,98125.00
2018-09-03T18:10:14.619Z,98121.00
2018-09-03T18:12:44.714Z,98124.00
2018-09-03T18:15:14.939Z,98122.00
2018-09-03T18:17:45.069Z,98119.00
2018-09-03T18:20:15.213Z,98122.00
2018-09-03T18:22:45.348Z,98124.00
2018-09-03T18:25:15.933Z,98122.00
2018-09-03T18:27:46.489Z,98128.00
2018-09-03T18:30:18.083Z,98126.00
2018-09-03T18:32:48.259Z,98128.00
2018-09-03T18:35:18.382Z,98126.00
2018-09-03T18:37:49.201Z,98124.00
2018-09-03T18:40:19.327Z,98126.00
2018-09-03T18:42:49.392Z,98131.00
2018-09-03T18:45:19.567Z,98128.00
2018-09-03T18:47:50.110Z,98127.00
2018-09-03T18:50:20.269Z,98129.00
2018-09-03T18:52:51.069Z,98127.00
2018-09-03T18:55:21.239Z,98133.00
2018-09-03T18:57:51.778Z,98133.00
2018-09-03T19:00:22.390Z,98136.00
2018-09-03T19:02:52.443Z,98136.00
2018-09-03T19:05:22.741Z,98138.00
2018-09-03T19:07:52.881Z,98136.00
2018-09-03T19:10:23.050Z,98141.00
2018-09-03T19:12:53.228Z,98138.00
2018-09-03T19:15:23.368Z,98143.00
2018-09-03T19:17:54.002Z,98147.00
2018-09-03T19:20:24.166Z,98147.00
2018-09-03T19:22:54.891Z,98147.00
2018-09-03T19:25:25.021Z,98147.00
2018-09-03T19:27:55.247Z,98146.00
2018-09-03T19:30:25.348Z,98148.00
2018-09-03T19:32:55.538Z,98147.00
2018-09-03T19:35:25.798Z,98150.00
2018-09-03T19:37:56.205Z,98149.00
2018-09-03T19:40:26.266Z,98147.00
2018-09-03T19:42:56.494Z,98148.00
2018-09-03T19:45:26.562Z,98145.00
2018-09-03T19:47:56.697Z,98144.00
2018-09-03T19:50:26.858Z,98143.00
2018-09-03T19:52:57.609Z,98141.00
2018-09-03T19:55:27.801Z,98139.00
2018-09-03T19:57:57.999Z,98134.00
2018-09-03T20:00:28.856Z,98130.00
2018-09-03T20:02:58.940Z,98131.00
2018-09-03T20:05:29.234Z,98143.00
2018-09-03T20:07:59.440Z,98145.00
2018-09-03T20:10:29.580Z,98143.00
2018-09-03T20:12:59.702Z,98145.00
2018-09-03T20:15:29.887Z,98144.00
2018-09-03T20:18:00.065Z,98142.00
2018-09-03T20:20:31.120Z,98141.00
2018-09-03T20:23:01.414Z,98136.00
2018-09-03T20:25:31.379Z,98135.00
2018-09-03T20:28:01.607Z,98142.00
2018-09-03T20:30:32.432Z,98143.00
2018-09-03T20:33:02.463Z,98146.00
2018-09-03T20:35:33.339Z,98151.00
2018-09-03T20:38:03.750Z,98149.00
2018-09-03T20:40:33.870Z,98154.00
2018-09-03T20:43:03.989Z,98152.00
2018-09-03T20:45:34.118Z,98157.00
2018-09-03T20:48:04.430Z,98152.00
2018-09-03T20:50:34.634Z,98149.00
2018-09-03T20:53:05.308Z,98151.00
2018-09-03T20:55:35.400Z,98147.00
2018-09-03T20:58:05.743Z,98146.00
2018-09-03T21:00:35.887Z,98146.00
2018-09-03T21:03:06.195Z,98148.00
2018-09-03T21:05:36.271Z,98144.00
2018-09-03T21:08:06.554Z,98143.00
2018-09-03T21:10:36.925Z,98139.00
2018-09-03T21:13:07.060Z,98139.00
2018-09-03T21:15:37.652Z,98138.00
2018-09-03T21:18:07.726Z,98134.00
2018-09-03T21:20:37.777Z,98129.00
2018-09-03T21:23:07.926Z,98134.00
2018-09-03T21:25:38.044Z,98131.00
2018-09-03T21:28:08.275Z,98128.00
2018-09-03T21:30:38.415Z,98129.00
2018-09-03T21:33:08.565Z,98131.00
2018-09-03T21:35:39.095Z,98134.00
2018-09-03T21:38:09.239Z,98140.00
2018-09-03T21:40:39.453Z,98144.00
2018-09-03T21:43:09.522Z,98143.00
2018-09-03T21:45:39.651Z,98143.00
2018-09-03T21:48:09.909Z,98148.00
2018-09-03T21:50:40.013Z,98144.00
2018-09-03T21:53:11.024Z,98141.00
2018-09-03T21:55:41.092Z,98137.00
2018-09-03T21:58:11.311Z,98137.00
2018-09-03T22:00:43.642Z,98137.00
2018-09-03T22:03:13.814Z,98135.00
2018-09-03T22:05:43.987Z,98134.00
2018-09-03T22:08:14.097Z,98135.00
2018-09-03T22:10:44.248Z,98136.00
2018-09-03T22:13:14.401Z,98134.00
2018-09-03T22:15:44.593Z,98137.00
2018-09-03T22:18:14.767Z,98137.00
2018-09-03T22:20:44.982Z,98134.00
2018-09-03T22:23:15.152Z,98143.00
2018-09-03T22:25:45.501Z,98135.00
2018-09-03T22:28:15.642Z,98135.00
2018-09-03T22:30:45.796Z,98133.00
2018-09-03T22:33:16.847Z,98134.00
2018-09-03T22:35:46.979Z,98129.00
2018-09-03T22:38:17.187Z,98129.00
2018-09-03T22:40:47.445Z,98130.00
2018-09-03T22:43:17.622Z,98130.00
2018-09-03T22:45:48.187Z,98131.00
2018-09-03T22:48:18.695Z,98131.00
2018-09-03T22:50:48.727Z,98135.00
2018-09-03T22:53:19.820Z,98133.00
2018-09-03T22:55:50.002Z,98131.00
2018-09-03T22:58:20.196Z,98129.00
2018-09-03T23:00:50.343Z,98127.00
2018-09-03T23:03:20.489Z,98129.00
2018-09-03T23:05:50.537Z,98130.00
2018-09-03T23:08:21.516Z,98125.00
2018-09-03T23:10:51.613Z,98127.00
2018-09-03T23:13:21.847Z,98125.00
2018-09-03T23:15:53.038Z,98124.00
2018-09-03T23:18:24.231Z,98125.00
2018-09-03T23:20:54.383Z,98123.00
2018-09-03T23:23:24.585Z,98121.00
2018-09-03T23:25:54.658Z,98121.00
2018-09-03T23:28:24.737Z,98112.00
2018-09-03T23:30:54.803Z,98113.00
2018-09-03T23:33:24.905Z,98114.00
2018-09-03T23:35:54.915Z,98109.00
2018-09-03T23:38:25.042Z,98105.00
2018-09-03T23:40:55.078Z,98104.00
2018-09-03T23:43:25.237Z,98108.00
2018-09-03T23:45:55.363Z,98109.00
2018-09-03T23:48:25.462Z,98109.00
2018-09-03T23:50:55.613Z,98106.00
2018-09-03T23:53:25.955Z,98103.00
2018-09-03T23:55:56.696Z,98101.00
2018-09-03T23:58:26.907Z,98103.00
